Time;durP1;ratioP1;P1;durP2;ratioP2;P2;SDS_P1;SDS_P2;PMS_P1;PMS_P2;Temp;Humidity;BMP_temperature;BMP_pressure;BME280_temperature;BME280_humidity;BME280_pressure;Samples;Min_cycle;Max_cycle;Signal;HPM_P1;HPM_P2
2023/01/13 00:00:21;;;;;;;;;2.00;2.00;;;;;11.36;91.49;100224.25;5058318;28;45493;-67
2023/01/13 00:02:46;;;;;;;;;1.00;1.00;;;;;11.37;92.04;100241.75;5058985;28;45359;-66
2023/01/13 00:05:11;;;;;;;;;2.25;2.25;;;;;11.35;92.41;100238.34;5059362;28;45493;-65
2023/01/13 00:07:38;;;;;;;;;2.00;2.00;;;;;11.32;92.66;100227.97;5058324;28;45436;-65
2023/01/13 00:10:09;;;;;;;;;2.25;2.25;;;;;11.32;93.52;100244.63;5091269;27;45543;-67
2023/01/13 00:12:38;;;;;;;;;2.00;2.00;;;;;11.24;95.44;100252.91;5056411;28;48646;-65
2023/01/13 00:15:04;;;;;;;;;0.00;0.00;;;;;11.07;96.12;100242.31;5055978;28;45327;-64
2023/01/13 00:17:29;;;;;;;;;1.00;1.00;;;;;10.95;96.60;100234.09;5057662;28;45425;-65
2023/01/13 00:19:55;;;;;;;;;1.00;1.00;;;;;10.86;97.24;100237.16;5058171;28;45671;-67
2023/01/13 00:22:21;;;;;;;;;1.50;1.50;;;;;10.77;97.41;100220.00;5057644;28;46672;-65
2023/01/13 00:24:46;;;;;;;;;1.00;1.00;;;;;10.72;96.74;100218.53;5056794;28;45227;-66
2023/01/13 00:27:11;;;;;;;;;0.00;0.00;;;;;10.65;96.45;100217.94;5089644;27;55024;-66
2023/01/13 00:29:36;;;;;;;;;0.00;0.00;;;;;10.63;95.78;100225.94;5057353;28;45338;-65
2023/01/13 00:32:02;;;;;;;;;34.75;31.00;;;;;10.60;95.43;100235.72;5057354;28;45322;-65
2023/01/13 00:34:27;;;;;;;;;0.75;0.75;;;;;10.58;95.87;100225.25;5056192;28;45260;-68
2023/01/13 00:36:53;;;;;;;;;2.25;2.25;;;;;10.57;96.09;100231.44;5057261;28;45263;-66
2023/01/13 00:39:18;;;;;;;;;0.25;0.25;;;;;10.54;95.66;100231.59;5057952;28;45548;-66
2023/01/13 00:44:27;;;;;;;;;0.00;0.00;;;;;10.35;95.22;100202.63;5059672;28;45246;-67
2023/01/13 00:46:53;;;;;;;;;1.00;1.00;;;;;10.52;94.75;100226.41;5060885;28;45275;-70
2023/01/13 00:49:18;;;;;;;;;0.25;0.25;;;;;10.50;94.61;100217.75;5062103;28;45356;-70
2023/01/13 00:51:44;;;;;;;;;0.50;0.50;;;;;10.49;93.63;100223.06;5058505;28;47123;-67
2023/01/13 00:54:09;;;;;;;;;0.00;0.00;;;;;10.45;93.62;100210.97;5058470;28;45827;-67
2023/01/13 00:56:34;;;;;;;;;0.50;0.50;;;;;10.43;93.27;100207.56;5057240;28;45463;-67
2023/01/13 00:59:01;;;;;;;;;2.00;1.00;;;;;10.39;92.79;100201.56;5057476;28;45554;-67
2023/01/13 01:01:26;;;;;;;;;1.00;1.00;;;;;10.39;92.75;100201.56;5056840;28;45409;-67
2023/01/13 01:03:53;;;;;;;;;2.00;2.00;;;;;10.36;92.20;100212.22;5056687;28;45413;-69
2023/01/13 01:06:21;;;;;;;;;0.00;0.00;;;;;10.35;91.70;100211.34;5056944;28;45462;-65
2023/01/13 01:08:47;;;;;;;;;1.00;1.00;;;;;10.32;91.71;100216.75;5057024;28;45502;-65
2023/01/13 01:11:19;;;;;;;;;0.00;0.00;;;;;10.33;91.65;100223.72;5056497;28;46711;-68
2023/01/13 01:13:45;;;;;;;;;0.00;0.00;;;;;10.28;91.55;100209.09;5056898;28;45469;-69
2023/01/13 01:16:14;;;;;;;;;0.00;0.00;;;;;10.34;91.18;100224.59;5056787;28;45426;-67
2023/01/13 01:18:42;;;;;;;;;2.00;2.00;;;;;10.27;91.02;100207.38;5058048;28;45538;-65
2023/01/13 01:21:08;;;;;;;;;0.00;0.00;;;;;10.22;91.62;100211.06;5056854;28;46304;-65
2023/01/13 01:23:35;;;;;;;;;0.00;0.00;;;;;10.33;90.91;100228.13;5056282;28;45331;-65
2023/01/13 01:26:11;;;;;;;;;0.00;0.00;;;;;10.31;90.73;100217.69;5056643;28;45544;-64
2023/01/13 01:28:37;;;;;;;;;0.75;0.75;;;;;10.33;90.42;100221.09;5056562;28;45261;-64
2023/01/13 01:31:08;;;;;;;;;0.00;0.00;;;;;10.33;90.09;100223.72;5056150;28;45279;-66
2023/01/13 01:33:33;;;;;;;;;0.00;0.00;;;;;10.27;89.46;100204.75;5056454;28;45375;-68
2023/01/13 01:36:00;;;;;;;;;0.00;0.00;;;;;10.30;88.79;100215.97;5057020;28;45370;-64
2023/01/13 01:38:25;;;;;;;;;0.00;0.00;;;;;10.29;88.84;100216.06;5056702;28;45350;-67
2023/01/13 01:40:50;;;;;;;;;0.00;0.00;;;;;10.30;88.18;100218.59;5056148;28;45342;-66
2023/01/13 01:46:03;;;;;;;;;0.00;0.00;;;;;10.30;87.67;100218.59;5057838;28;45321;-63
2023/01/13 01:48:36;;;;;;;;;0.00;0.00;;;;;10.30;86.86;100215.97;5056918;28;45517;-67
2023/01/13 01:51:01;;;;;;;;;0.00;0.00;;;;;10.30;86.95;100215.97;5056611;28;45530;-66
2023/01/13 01:53:29;;;;;;;;;0.00;0.00;;;;;10.31;87.27;100208.94;5056195;28;45375;-64
2023/01/13 01:55:56;;;;;;;;;0.00;0.00;;;;;10.27;86.72;100216.09;5056637;28;45330;-66
2023/01/13 01:58:37;;;;;;;;;1.00;1.00;;;;;10.24;86.19;100224.13;5056396;28;45338;-69
2023/01/13 02:01:02;;;;;;;;;0.00;0.00;;;;;10.19;86.11;100221.72;5056570;28;45274;-65
2023/01/13 02:03:28;;;;;;;;;0.25;0.25;;;;;10.15;86.32;100230.66;5059559;28;45260;-67
2023/01/13 02:05:54;;;;;;;;;0.50;0.50;;;;;10.11;86.50;100221.22;5062142;28;44719;-66
2023/01/13 02:08:19;;;;;;;;;0.00;0.00;;;;;10.08;86.12;100224.81;5059628;28;45249;-66
2023/01/13 02:10:51;;;;;;;;;0.00;0.00;;;;;10.05;86.41;100234.59;5057405;28;56628;-66
2023/01/13 02:13:18;;;;;;;;;0.00;0.00;;;;;10.01;85.91;100239.16;5088612;27;45270;-65
2023/01/13 02:16:01;;;;;;;;;0.50;0.50;;;;;9.99;85.88;100254.13;5055886;28;45313;-67
2023/01/13 02:18:51;;;;;;;;;0.00;0.00;;;;;9.96;86.02;100243.75;5056206;27;45375;-67
2023/01/13 02:21:56;;;;;;;;;0.75;0.75;;;;;9.92;85.65;100248.25;5088482;27;46380;-64
2023/01/13 02:24:58;;;;;;;;;0.00;0.00;;;;;9.87;85.75;100242.34;5055537;28;45326;-66
2023/01/13 02:27:41;;;;;;;;;0.00;0.00;;;;;9.86;85.41;100234.56;5050695;27;45462;-64
2023/01/13 02:33:13;;;;;;;;;0.00;0.00;;;;;9.81;85.68;100236.53;5034815;28;45521;-65
2023/01/13 02:35:49;;;;;;;;;0.00;0.00;;;;;9.76;85.33;100219.19;5034744;28;45457;-68
2023/01/13 02:38:21;;;;;;;;;0.50;0.50;;;;;9.74;85.49;100233.28;5035293;28;45357;-67
2023/01/13 02:40:57;;;;;;;;;0.50;0.00;;;;;9.75;85.40;100240.25;5034275;28;45395;-68
2023/01/13 02:46:47;;;;;;;;;0.75;0.00;;;;;9.70;85.32;100229.09;5035165;28;45509;-70
2023/01/13 02:49:20;;;;;;;;;0.50;0.50;;;;;9.67;85.16;100237.09;5035242;28;45268;-64
2023/01/13 02:51:50;;;;;;;;;0.50;0.50;;;;;9.67;85.16;100226.59;5035090;28;45457;-66
2023/01/13 02:54:21;;;;;;;;;0.00;0.00;;;;;9.67;85.40;100248.47;5034214;28;45566;-65
2023/01/13 02:56:49;;;;;;;;;0.00;0.00;;;;;9.66;85.63;100241.50;5035953;28;45329;-68
2023/01/13 02:59:15;;;;;;;;;1.00;1.00;;;;;9.64;85.09;100248.59;5051638;28;45372;-66
2023/01/13 03:01:41;;;;;;;;;0.00;0.00;;;;;9.62;85.59;100248.63;5035378;28;45425;-65
2023/01/13 03:04:14;;;;;;;;;0.25;0.00;;;;;9.62;85.47;100255.69;5035491;28;45843;-67
2023/01/13 03:06:47;;;;;;;;;0.00;0.00;;;;;9.63;84.79;100263.47;5037080;28;45460;-65
2023/01/13 03:09:28;;;;;;;;;0.25;0.25;;;;;9.63;85.02;100258.22;5035335;28;45695;-65
2023/01/13 03:12:16;;;;;;;;;0.00;0.00;;;;;9.65;84.95;100276.56;5035162;28;45318;-64
2023/01/13 03:14:56;;;;;;;;;3.25;2.50;;;;;9.65;84.60;100274.78;5034857;28;46006;-66
2023/01/13 03:17:43;;;;;;;;;0.00;0.00;;;;;9.68;85.12;100288.69;5035035;28;45523;-66
2023/01/13 03:20:20;;;;;;;;;0.00;0.00;;;;;9.57;84.53;100269.00;5034963;28;45275;-66
2023/01/13 03:23:04;;;;;;;;;0.50;0.50;;;;;9.68;84.08;100289.56;5035897;28;45413;-66
2023/01/13 03:25:55;;;;;;;;;2.25;2.25;;;;;9.71;84.46;100278.06;5033083;28;47244;-66
2023/01/13 03:28:30;;;;;;;;;0.50;0.50;;;;;9.71;84.27;100268.44;5034193;28;45429;-66
2023/01/13 03:31:11;;;;;;;;;0.75;0.75;;;;;9.79;83.89;100271.59;5034657;28;45388;-64
2023/01/13 03:33:44;;;;;;;;;0.25;0.25;;;;;9.79;83.53;100261.09;5033795;28;45241;-65
2023/01/13 03:36:13;;;;;;;;;0.00;0.00;;;;;9.88;83.09;100278.22;5034626;28;46247;-64
2023/01/13 03:38:49;;;;;;;;;0.00;0.00;;;;;9.88;82.96;100269.50;5035068;28;45822;-66
2023/01/13 03:41:24;;;;;;;;;0.50;0.50;;;;;9.94;82.68;100282.38;5033209;28;45309;-64
2023/01/13 03:46:57;;;;;;;;;0.00;0.00;;;;;10.00;82.38;100289.13;5035354;28;45383;-65
2023/01/13 03:49:28;;;;;;;;;0.00;0.00;;;;;10.02;81.53;100282.91;5034832;28;45272;-66
2023/01/13 03:52:03;;;;;;;;;0.50;0.00;;;;;10.04;81.33;100280.19;5034921;28;45248;-64
2023/01/13 03:54:32;;;;;;;;;0.50;0.50;;;;;10.04;80.61;100274.94;5035104;28;45229;-67
2023/01/13 03:57:08;;;;;;;;;0.00;0.00;;;;;10.02;80.99;100269.75;5034007;28;46692;-65
2023/01/13 03:59:40;;;;;;;;;1.00;1.00;;;;;10.02;80.94;100267.13;5034329;28;45518;-65
2023/01/13 04:02:18;;;;;;;;;0.25;0.25;;;;;10.08;81.09;100272.13;5034240;28;45476;-64
2023/01/13 04:04:53;;;;;;;;;0.00;0.00;;;;;10.09;80.32;100271.19;5037142;28;45305;-64
2023/01/13 04:07:43;;;;;;;;;0.00;0.00;;;;;10.11;79.40;100271.16;5037670;28;46179;-67
2023/01/13 04:10:11;;;;;;;;;0.00;0.00;;;;;10.08;79.78;100266.84;5037980;28;45292;-66
2023/01/13 04:12:59;;;;;;;;;1.00;1.00;;;;;10.09;79.34;100278.25;5039483;28;45427;-69
2023/01/13 04:15:27;;;;;;;;;0.00;0.00;;;;;10.05;78.78;100280.13;5038462;28;45394;-67
2023/01/13 04:17:53;;;;;;;;;0.00;0.00;;;;;10.06;78.86;100289.72;5037396;28;46252;-68
2023/01/13 04:20:19;;;;;;;;;0.00;0.00;;;;;10.04;79.13;100281.06;5037709;28;45218;-65
2023/01/13 04:22:44;;;;;;;;;0.00;0.00;;;;;10.04;78.82;100290.69;5040829;28;45321;-66
2023/01/13 04:25:10;;;;;;;;;0.00;0.00;;;;;10.03;79.13;100294.25;5039001;28;45185;-67
2023/01/13 04:27:35;;;;;;;;;0.00;0.00;;;;;10.03;78.90;100304.75;5039995;28;45935;-64
2023/01/13 04:30:01;;;;;;;;;0.25;0.25;;;;;10.03;78.51;100296.88;5039692;28;45485;-64
2023/01/13 04:32:26;;;;;;;;;0.50;0.50;;;;;10.01;78.28;100306.59;5038580;28;45369;-67
2023/01/13 04:34:51;;;;;;;;;0.00;0.00;;;;;9.98;78.32;100304.97;5040765;28;49826;-64
2023/01/13 04:37:17;;;;;;;;;0.00;0.00;;;;;9.94;78.43;100311.25;5039221;28;45883;-67
2023/01/13 04:39:42;;;;;;;;;0.00;0.00;;;;;9.86;78.25;100301.06;5037479;28;45766;-65
2023/01/13 04:42:08;;;;;;;;;0.00;0.00;;;;;9.86;78.21;100316.81;5036267;28;45339;-65
2023/01/13 04:44:34;;;;;;;;;0.00;0.00;;;;;9.75;78.35;100312.03;5037363;28;45590;-67
2023/01/13 04:47:00;;;;;;;;;1.00;1.00;;;;;9.72;78.11;100311.28;5052412;28;46933;-64
2023/01/13 04:49:25;;;;;;;;;0.25;0.25;;;;;9.73;77.93;100316.50;5037103;28;45249;-69
2023/01/13 04:51:51;;;;;;;;;0.00;0.00;;;;;9.76;78.18;100324.25;5036974;28;45254;-65
2023/01/13 04:54:16;;;;;;;;;0.00;0.00;;;;;9.74;78.14;100323.47;5037188;28;45375;-64
2023/01/13 04:56:42;;;;;;;;;0.00;0.00;;;;;9.74;77.71;100315.59;5037153;28;46759;-69
2023/01/13 04:59:12;;;;;;;;;0.75;0.75;;;;;9.65;77.55;100310.72;5036722;28;45287;-67
2023/01/13 05:01:38;;;;;;;;;1.00;1.00;;;;;9.69;77.23;100322.78;5036870;28;45446;-65
2023/01/13 05:04:05;;;;;;;;;0.00;0.00;;;;;9.62;76.98;100330.06;5037172;28;46135;-66
2023/01/13 05:06:30;;;;;;;;;0.00;0.00;;;;;9.63;76.92;100326.50;5036424;28;45353;-65
2023/01/13 05:08:56;;;;;;;;;0.00;0.00;;;;;9.61;77.08;100333.59;5051798;28;45355;-69
2023/01/13 05:17:01;;;;;;;;;0.25;0.25;;;;;9.48;76.65;100343.72;5036401;28;45503;-64
2023/01/13 05:19:31;;;;;;;;;0.00;0.00;;;;;9.47;76.70;100346.41;5036443;28;45415;-65
2023/01/13 05:27:25;;;;;;;;;0.00;0.00;;;;;9.41;76.71;100368.50;5037027;28;45311;-65
2023/01/13 05:29:50;;;;;;;;;0.00;0.00;;;;;9.32;76.79;100367.09;5036390;28;45515;-63
2023/01/13 05:32:16;;;;;;;;;0.00;0.00;;;;;9.30;76.64;100368.94;5036578;28;45288;-63
2023/01/13 05:34:41;;;;;;;;;2.00;0.00;;;;;9.35;76.80;100392.38;5036735;28;45418;-66
2023/01/13 05:37:07;;;;;;;;;0.00;0.00;;;;;9.34;77.22;100404.66;5035995;28;45369;-68
2023/01/13 05:43:18;;;;;;;;;1.00;1.00;;;;;9.35;77.16;100411.63;5035759;28;45376;-68
2023/01/13 05:45:02;;;;;;;;;0.50;0.50;;;;;9.33;77.13;100402.06;5036253;28;45402;-69
2023/01/13 05:47:27;;;;;;;;;1.00;1.00;;;;;9.37;77.91;100390.53;5034330;28;47388;-66
2023/01/13 05:49:52;;;;;;;;;0.75;0.75;;;;;9.37;77.06;100395.78;5036745;28;45331;-65
2023/01/13 05:52:17;;;;;;;;;2.00;2.00;;;;;9.35;77.36;100393.25;5036792;28;46550;-65
2023/01/13 05:54:43;;;;;;;;;0.00;0.00;;;;;9.36;77.32;100396.69;5036225;28;46051;-66
2023/01/13 05:57:08;;;;;;;;;0.00;0.00;;;;;9.32;76.78;100395.97;5036256;28;45415;-63
2023/01/13 05:59:33;;;;;;;;;1.25;1.25;;;;;9.14;76.66;100371.28;5035430;28;46693;-65
2023/01/13 06:01:59;;;;;;;;;0.75;0.75;;;;;9.29;76.80;100397.84;5035284;28;51388;-66
2023/01/13 06:04:24;;;;;;;;;0.75;0.00;;;;;9.24;76.34;100405.91;5035689;28;45592;-63
2023/01/13 06:06:49;;;;;;;;;0.50;0.50;;;;;9.23;76.75;100411.22;5035593;28;46110;-65
2023/01/13 06:09:15;;;;;;;;;2.00;2.00;;;;;9.19;76.77;100424.44;5050860;28;46312;-64
2023/01/13 06:11:40;;;;;;;;;1.25;1.25;;;;;9.18;76.73;100414.84;5036161;28;45269;-66
2023/01/13 06:14:05;;;;;;;;;0.50;0.50;;;;;9.17;76.53;100431.53;5036221;28;53155;-65
2023/01/13 06:16:30;;;;;;;;;1.75;1.75;;;;;9.06;76.50;100426.69;5034484;28;47063;-65
2023/01/13 06:18:56;;;;;;;;;2.00;2.00;;;;;9.11;76.47;100439.63;5035697;28;45236;-64
2023/01/13 06:21:21;;;;;;;;;0.00;0.00;;;;;9.12;76.13;100443.13;5035609;28;45248;-63
2023/01/13 06:23:46;;;;;;;;;1.25;1.25;;;;;9.11;76.10;100449.28;5035849;28;45354;-65
2023/01/13 06:26:19;;;;;;;;;1.25;1.25;;;;;9.11;76.12;100447.50;5033735;28;51779;-66
2023/01/13 06:28:44;;;;;;;;;2.25;2.25;;;;;9.08;76.01;100452.84;5035429;28;45370;-64
2023/01/13 06:31:10;;;;;;;;;1.50;1.50;;;;;9.03;76.15;100458.28;5035112;28;45304;-67
2023/01/13 06:33:46;;;;;;;;;2.00;2.00;;;;;8.99;75.60;100464.50;5035501;28;45256;-66
2023/01/13 06:36:17;;;;;;;;;3.00;3.00;;;;;9.02;75.95;100471.44;5035314;28;45312;-68
2023/01/13 06:38:46;;;;;;;;;2.50;2.50;;;;;9.01;75.63;100482.84;5035015;28;45386;-65
2023/01/13 06:41:12;;;;;;;;;2.00;1.00;;;;;8.97;76.05;100479.44;5035443;28;45267;-67
2023/01/13 06:43:38;;;;;;;;;1.25;1.25;;;;;8.97;75.94;100476.84;5035368;28;45543;-66
2023/01/13 06:46:04;;;;;;;;;1.50;1.00;;;;;8.96;75.57;100482.16;5035291;28;46540;-65
2023/01/13 06:48:33;;;;;;;;;5.00;5.00;;;;;8.92;76.30;100481.38;5035230;28;45229;-65
2023/01/13 06:51:02;;;;;;;;;2.00;2.00;;;;;8.91;75.82;100490.16;5035723;28;45393;-65
2023/01/13 06:53:28;;;;;;;;;1.50;1.50;;;;;8.93;75.75;100479.63;5035789;28;45189;-66
2023/01/13 06:55:53;;;;;;;;;2.00;2.00;;;;;8.84;75.75;100465.94;5033428;28;47600;-64
2023/01/13 06:58:18;;;;;;;;;2.25;2.25;;;;;8.88;75.94;100485.91;5035316;28;47761;-66
2023/01/13 07:00:48;;;;;;;;;3.00;3.00;;;;;8.89;75.99;100476.25;5035451;28;49695;-65
2023/01/13 07:03:15;;;;;;;;;2.75;2.75;;;;;8.94;75.52;100491.84;5036836;28;45451;-64
2023/01/13 07:05:49;;;;;;;;;2.00;2.00;;;;;8.93;75.31;100496.22;5035378;28;47447;-64
2023/01/13 07:08:15;;;;;;;;;2.00;2.00;;;;;8.94;75.24;100497.94;5034831;28;45338;-65
2023/01/13 07:10:40;;;;;;;;;1.75;1.75;;;;;9.00;74.92;100494.25;5034590;28;45434;-66
2023/01/13 07:15:57;;;;;;;;;6.00;4.00;;;;;9.06;74.96;100504.53;5034528;28;45315;-66
2023/01/13 07:18:23;;;;;;;;;4.00;4.00;;;;;9.03;74.96;100510.75;5034207;28;45335;-69
2023/01/13 07:20:57;;;;;;;;;2.50;2.50;;;;;9.08;74.48;100520.22;5034788;28;45403;-63
2023/01/13 07:23:24;;;;;;;;;1.00;1.00;;;;;9.12;74.88;100527.94;5034709;28;45453;-67
2023/01/13 07:25:50;;;;;;;;;2.00;2.00;;;;;9.09;74.41;100527.19;5034740;28;45556;-66
2023/01/13 07:28:15;;;;;;;;;1.25;1.25;;;;;9.13;74.17;100524.38;5039053;28;45359;-66
2023/01/13 07:30:40;;;;;;;;;4.00;4.00;;;;;9.10;74.42;100531.53;5041732;28;45307;-65
2023/01/13 07:33:06;;;;;;;;;3.00;2.50;;;;;9.08;74.27;100526.31;5039237;28;45570;-66
2023/01/13 07:35:31;;;;;;;;;1.25;1.25;;;;;9.13;74.51;100537.50;5035084;28;46212;-66
2023/01/13 07:37:56;;;;;;;;;3.00;1.50;;;;;9.11;74.46;100544.59;5036529;28;45363;-64
2023/01/13 07:40:22;;;;;;;;;2.00;2.00;;;;;9.12;74.82;100558.56;5039071;28;45328;-63
2023/01/13 07:45:31;;;;;;;;;1.50;1.50;;;;;9.11;74.69;100546.38;5038396;28;45236;-69
2023/01/13 07:47:56;;;;;;;;;1.75;1.75;;;;;9.11;74.73;100538.50;5038073;28;45181;-67
2023/01/13 07:50:22;;;;;;;;;2.25;2.25;;;;;9.05;75.11;100556.16;5038187;28;45368;-66
2023/01/13 07:52:48;;;;;;;;;4.25;4.25;;;;;9.07;74.92;100561.34;5038304;28;45656;-66
2023/01/13 07:55:14;;;;;;;;;2.00;1.50;;;;;9.06;74.84;100567.50;5038975;28;46567;-64
2023/01/13 07:57:39;;;;;;;;;3.50;3.00;;;;;8.98;75.01;100566.91;5037224;28;45252;-66
2023/01/13 08:00:05;;;;;;;;;5.00;3.00;;;;;9.00;75.16;100581.66;5037301;28;45244;-67
2023/01/13 08:02:30;;;;;;;;;2.00;2.00;;;;;8.98;75.32;100585.28;5037816;28;45403;-66
2023/01/13 08:04:56;;;;;;;;;8.00;8.00;;;;;8.94;75.42;100578.41;5037193;28;45837;-67
2023/01/13 08:07:22;;;;;;;;;2.25;2.25;;;;;9.02;75.50;100581.63;5037644;28;45397;-66
2023/01/13 08:09:47;;;;;;;;;3.00;3.00;;;;;9.01;75.59;100579.91;5035991;28;45302;-67
2023/01/13 08:14:56;;;;;;;;;4.50;3.25;;;;;8.97;75.56;100575.69;5037304;28;45912;-68
2023/01/13 08:17:22;;;;;;;;;2.25;2.25;;;;;8.97;75.47;100581.78;5037060;28;58908;-66
2023/01/13 08:19:47;;;;;;;;;34.25;33.25;;;;;8.96;75.63;100589.72;5037062;28;45336;-67
2023/01/13 08:22:12;;;;;;;;;3.50;3.50;;;;;8.94;75.50;100584.50;5037934;28;45647;-65
2023/01/13 08:24:38;;;;;;;;;3.00;3.00;;;;;8.88;75.70;100580.34;5037216;28;45815;-67
2023/01/13 08:27:03;;;;;;;;;3.00;3.00;;;;;8.93;76.24;100598.53;5037217;28;45401;-66
2023/01/13 08:29:29;;;;;;;;;2.50;2.50;;;;;8.95;76.29;100594.09;5035651;28;45317;-70
2023/01/13 08:31:54;;;;;;;;;2.50;2.50;;;;;8.99;76.91;100594.84;5039165;28;45510;-67
2023/01/13 08:34:20;;;;;;;;;2.75;2.75;;;;;9.03;76.30;100593.84;5056482;28;45620;-69
2023/01/13 08:36:48;;;;;;;;;1.50;1.50;;;;;8.98;76.28;100590.50;5055736;28;45539;-68
2023/01/13 08:39:13;;;;;;;;;2.00;2.00;;;;;8.98;76.06;100593.97;5055532;28;45503;-67
2023/01/13 08:41:53;;;;;;;;;1.75;1.75;;;;;9.08;75.86;100605.03;5054952;28;45593;-68
2023/01/13 08:44:19;;;;;;;;;4.25;4.00;;;;;9.12;75.85;100611.06;5055923;28;45483;-66
2023/01/13 08:46:44;;;;;;;;;3.00;3.00;;;;;9.14;76.07;100612.72;5055440;28;45755;-65
2023/01/13 08:49:09;;;;;;;;;4.75;3.00;;;;;9.18;75.88;100614.31;5054307;28;45443;-67
2023/01/13 08:51:35;;;;;;;;;2.75;2.75;;;;;9.19;75.88;100623.06;5055180;28;45568;-67
2023/01/13 08:54:01;;;;;;;;;2.00;2.00;;;;;9.11;75.87;100606.72;5055214;28;47090;-66
2023/01/13 08:56:28;;;;;;;;;3.00;3.00;;;;;9.14;75.51;100620.56;5056690;28;45395;-67
2023/01/13 08:58:56;;;;;;;;;2.25;2.25;;;;;9.12;75.59;100614.53;5057292;28;45414;-68
2023/01/13 09:01:22;;;;;;;;;2.25;2.25;;;;;9.11;75.54;100610.19;5055795;28;45485;-66
2023/01/13 09:03:48;;;;;;;;;3.50;3.00;;;;;9.09;75.58;100612.00;5056047;28;46121;-67
2023/01/13 09:06:13;;;;;;;;;2.25;2.25;;;;;9.09;75.26;100622.50;5056925;28;45411;-67
2023/01/13 09:08:39;;;;;;;;;3.25;3.25;;;;;9.04;75.20;100625.28;5057076;28;45296;-67
2023/01/13 09:13:10;;;;;;;;;2.25;2.25;;;;;9.01;75.20;100614.91;5056728;28;45382;-66
2023/01/13 09:13:50;;;;;;;;;2.00;2.00;;;;;9.05;75.56;100620.88;5056321;28;45307;-67
2023/01/13 09:16:16;;;;;;;;;3.00;3.00;;;;;9.05;75.12;100626.13;5054900;28;45480;-67
2023/01/13 09:18:41;;;;;;;;;5.50;4.00;;;;;9.10;75.12;100634.72;5089938;27;45239;-67
2023/01/13 09:21:09;;;;;;;;;3.50;3.50;;;;;9.09;74.83;100633.00;5056652;28;45199;-67
2023/01/13 09:23:35;;;;;;;;;3.00;2.75;;;;;9.14;75.21;100640.72;5057641;28;46265;-67
2023/01/13 09:26:00;;;;;;;;;2.25;2.25;;;;;9.13;75.43;100631.97;5055946;28;45329;-67
2023/01/13 09:28:25;;;;;;;;;3.00;3.00;;;;;9.21;74.97;100650.13;5056676;28;45392;-66
2023/01/13 09:30:51;;;;;;;;;3.75;2.50;;;;;9.18;74.90;100650.22;5056290;28;45286;-68
2023/01/13 09:36:00;;;;;;;;;3.00;3.00;;;;;9.22;74.55;100667.56;5056646;28;45185;-65
2023/01/13 09:38:26;;;;;;;;;3.00;3.00;;;;;9.29;74.55;100665.59;5056623;28;45317;-66
2023/01/13 09:40:51;;;;;;;;;2.50;2.00;;;;;9.30;74.17;100662.06;5071738;28;45647;-68
2023/01/13 09:46:42;;;;;;;;;3.00;3.00;;;;;9.34;73.77;100658.41;5082627;27;45421;-67
2023/01/13 09:49:02;;;;;;;;;2.25;2.25;;;;;9.39;73.07;100680.13;5082575;27;45226;-66
2023/01/13 09:51:38;;;;;;;;;2.00;2.00;;;;;9.43;73.44;100665.13;5056560;28;45503;-65
2023/01/13 09:54:15;;;;;;;;;3.75;3.50;;;;;9.50;73.57;100662.22;5055676;28;46265;-66
2023/01/13 09:56:41;;;;;;;;;7.75;6.50;;;;;9.59;72.95;100683.88;5056157;28;45173;-66
2023/01/13 09:59:10;;;;;;;;;3.00;3.00;;;;;9.66;72.25;100685.38;5055090;28;45351;-64
2023/01/13 10:02:12;;;;;;;;;4.00;4.00;;;;;9.72;72.03;100693.03;5056480;28;45439;-65
2023/01/13 10:04:38;;;;;;;;;4.00;4.00;;;;;9.75;71.44;100685.03;5055470;28;45507;-67
2023/01/13 10:07:09;;;;;;;;;1.75;1.75;;;;;9.77;71.53;100687.59;5072459;28;45461;-66
2023/01/13 10:09:50;;;;;;;;;1.75;1.75;;;;;9.78;71.24;100702.44;5055904;28;45321;-67
2023/01/13 10:15:18;;;;;;;;;4.25;3.00;;;;;9.74;70.47;100712.22;5055339;28;45429;-66
2023/01/13 10:17:57;;;;;;;;;3.75;3.75;;;;;9.71;70.74;100704.44;5053882;28;45461;-67
2023/01/13 10:20:33;;;;;;;;;4.25;4.25;;;;;9.65;70.66;100716.00;5056103;28;45272;-67
2023/01/13 10:23:17;;;;;;;;;1.25;1.25;;;;;9.67;70.50;100729.09;5055403;28;45588;-68
2023/01/13 10:25:52;;;;;;;;;2.50;2.50;;;;;9.66;70.82;100719.50;5056349;28;45307;-65
2023/01/13 10:28:18;;;;;;;;;0.50;0.50;;;;;9.69;70.51;100716.78;5055724;28;45216;-66
2023/01/13 10:30:45;;;;;;;;;3.50;3.00;;;;;9.68;70.31;100706.31;5057046;28;45434;-70
2023/01/13 10:33:40;;;;;;;;;1.25;1.25;;;;;9.72;70.18;100713.16;5054300;28;45753;-65
2023/01/13 10:36:11;;;;;;;;;4.00;4.00;;;;;9.76;70.65;100715.66;5042963;28;48599;-67
2023/01/13 10:38:39;;;;;;;;;1.25;1.25;;;;;9.79;70.33;100718.19;5054117;28;45568;-67
2023/01/13 10:41:13;;;;;;;;;3.00;3.00;;;;;9.80;70.44;100729.53;5055879;28;45332;-66
2023/01/13 10:43:41;;;;;;;;;3.00;3.00;;;;;9.83;69.93;100721.53;5055913;28;45187;-65
2023/01/13 10:46:15;;;;;;;;;4.00;2.75;;;;;9.83;69.58;100736.47;5055578;28;47099;-67
2023/01/13 10:48:52;;;;;;;;;3.25;3.25;;;;;9.88;69.26;100737.16;5056542;28;45365;-67
2023/01/13 10:51:23;;;;;;;;;4.00;4.00;;;;;9.91;69.55;100735.25;5055821;28;45456;-68
2023/01/13 10:54:01;;;;;;;;;5.25;3.50;;;;;9.94;69.51;100747.44;5056625;28;45149;-68
2023/01/13 10:56:31;;;;;;;;;2.25;1.00;;;;;10.01;68.63;100748.94;5054739;28;45417;-67
2023/01/13 10:59:25;;;;;;;;;2.50;2.00;;;;;9.87;68.65;100711.78;5055040;28;45239;-68
2023/01/13 11:02:26;;;;;;;;;1.50;1.50;;;;;10.22;68.46;100756.97;5036881;28;45301;-67
2023/01/13 11:04:51;;;;;;;;;2.00;2.00;;;;;10.30;68.63;100757.56;5055446;28;45323;-68
2023/01/13 11:07:28;;;;;;;;;3.50;3.50;;;;;10.38;68.13;100758.13;5057123;28;45276;-67
2023/01/13 11:10:27;;;;;;;;;2.50;2.50;;;;;10.51;68.39;100776.13;5056537;28;45302;-68
2023/01/13 11:13:09;;;;;;;;;3.00;3.00;;;;;10.56;67.77;100771.56;5072467;28;45356;-66
2023/01/13 11:16:06;;;;;;;;;2.50;2.50;;;;;10.57;67.56;100769.78;5058072;28;45353;-67
2023/01/13 11:19:10;;;;;;;;;5.50;4.00;;;;;10.51;68.13;100766.47;5057831;28;46497;-67
2023/01/13 11:21:54;;;;;;;;;5.25;5.25;;;;;10.44;68.36;100778.13;5057862;28;45335;-68
2023/01/13 11:24:35;;;;;;;;;2.50;2.50;;;;;10.42;67.98;100779.09;5058170;28;45436;-68
2023/01/13 11:27:10;;;;;;;;;2.00;2.00;;;;;10.40;68.30;100786.19;5058649;28;45593;-67
2023/01/13 11:30:08;;;;;;;;;2.00;2.00;;;;;10.42;67.25;100787.84;5056770;28;45410;-66
2023/01/13 11:32:52;;;;;;;;;3.50;3.50;;;;;10.42;67.93;100795.75;5050420;28;45410;-68
2023/01/13 11:35:20;;;;;;;;;3.50;3.50;;;;;10.46;67.70;100805.25;5057174;28;45494;-68
2023/01/13 11:37:56;;;;;;;;;4.00;4.00;;;;;10.49;67.33;100802.50;5059394;28;45512;-67
2023/01/13 11:40:33;;;;;;;;;4.50;4.50;;;;;10.48;66.73;100803.41;5058073;28;45260;-68
2023/01/13 11:43:14;;;;;;;;;3.75;3.75;;;;;10.51;67.10;100787.53;5058217;28;45248;-66
2023/01/13 11:45:52;;;;;;;;;5.00;4.00;;;;;10.49;67.21;100791.97;5058562;28;45251;-67
2023/01/13 11:48:22;;;;;;;;;1.00;1.00;;;;;10.59;66.85;100808.25;5059010;28;45379;-67
2023/01/13 11:51:08;;;;;;;;;5.50;5.50;;;;;10.60;66.49;100791.59;5057358;28;46084;-67
2023/01/13 11:54:09;;;;;;;;;7.25;7.25;;;;;10.63;66.53;100812.53;5057859;28;45362;-66
2023/01/13 11:56:57;;;;;;;;;6.00;5.50;;;;;10.69;66.48;100800.06;5057037;28;45392;-65
2023/01/13 11:59:52;;;;;;;;;5.25;5.00;;;;;10.81;66.06;100803.06;5057888;28;45402;-68
2023/01/13 12:02:21;;;;;;;;;9.50;9.50;;;;;10.93;66.19;100793.00;5057744;28;45400;-68
2023/01/13 12:05:09;;;;;;;;;2.75;1.25;;;;;11.01;64.87;100798.81;5056192;28;45252;-66
2023/01/13 12:07:57;;;;;;;;;0.00;0.00;;;;;10.98;65.00;100791.03;5058006;28;45351;-65
2023/01/13 12:10:32;;;;;;;;;3.00;3.00;;;;;11.03;64.54;100789.09;5057392;28;45272;-66
2023/01/13 12:13:21;;;;;;;;;5.00;5.00;;;;;11.04;63.66;100787.31;5057018;28;46151;-69
2023/01/13 12:15:46;;;;;;;;;6.25;4.50;;;;;11.05;64.14;100787.25;5053856;28;45485;-67
2023/01/13 12:18:29;;;;;;;;;2.25;2.25;;;;;11.08;63.60;100794.19;5057068;28;45296;-68
2023/01/13 12:21:19;;;;;;;;;4.00;4.00;;;;;11.09;63.56;100796.75;5057522;28;45320;-65
2023/01/13 12:23:53;;;;;;;;;8.50;6.00;;;;;11.10;63.93;100798.47;5071463;28;45495;-67
2023/01/13 12:26:21;;;;;;;;;6.00;5.50;;;;;11.19;63.43;100796.41;5059022;28;45519;-67
2023/01/13 12:29:09;;;;;;;;;9.75;9.75;;;;;11.24;63.72;100805.00;5058379;28;45458;-66
2023/01/13 12:31:37;;;;;;;;;6.00;4.75;;;;;11.24;63.05;100783.94;5057757;28;45319;-66